createdAt,value
2024-02-23T00:03:02.000Z,153.58
2024-02-23T00:08:02.000Z,152.36
2024-02-23T00:13:02.000Z,149.33
2024-02-23T00:18:03.000Z,132.82
2024-02-23T00:23:02.000Z,132.82
2024-02-23T00:28:03.000Z,107.88
2024-02-23T00:33:02.000Z,103.31
2024-02-23T00:38:02.000Z,100.86
2024-02-23T00:43:02.000Z,97.48
2024-02-23T00:48:03.000Z,96.15
2024-02-23T00:53:02.000Z,95.73
2024-02-23T00:58:02.000Z,93.63
2024-02-23T01:03:02.000Z,91.52
2024-02-23T01:08:02.000Z,85.9
2024-02-23T01:13:02.000Z,78.21
2024-02-23T01:18:02.000Z,75.58
2024-02-23T01:23:03.000Z,72.2
2024-02-23T01:28:03.000Z,63.41
2024-02-23T01:33:02.000Z,55.33
2024-02-23T01:38:02.000Z,50.9
2024-02-23T01:43:02.000Z,48.02
2024-02-23T01:48:02.000Z,48.02
2024-02-23T01:53:01.000Z,45.59
2024-02-23T01:58:02.000Z,44.38
2024-02-23T02:03:02.000Z,42.31
2024-02-23T02:08:03.000Z,41.71
2024-02-23T02:13:02.000Z,41.51
2024-02-23T02:18:03.000Z,43.71
2024-02-23T02:23:03.000Z,55.6
2024-02-23T02:28:02.000Z,63.06
2024-02-23T02:33:03.000Z,61.54
2024-02-23T02:38:03.000Z,56.96
2024-02-23T02:43:02.000Z,49.21
2024-02-23T02:48:02.000Z,45.87
2024-02-23T02:53:02.000Z,43.79
2024-02-23T02:58:02.000Z,43.12
2024-02-23T03:03:02.000Z,42.12
2024-02-23T03:08:02.000Z,40.84
2024-02-23T03:13:03.000Z,41.21
2024-02-23T03:18:03.000Z,41.33
2024-02-23T03:23:03.000Z,41.33
2024-02-23T03:28:02.000Z,40.67
2024-02-23T03:33:02.000Z,40.64
2024-02-23T03:38:02.000Z,39.14
2024-02-23T03:43:02.000Z,40.74
2024-02-23T03:48:02.000Z,42.22
2024-02-23T03:53:02.000Z,44.79
2024-02-23T03:58:02.000Z,62.18
2024-02-23T04:03:03.000Z,79.41
2024-02-23T04:08:03.000Z,71.68
2024-02-23T04:13:02.000Z,57.77
2024-02-23T04:18:02.000Z,52
2024-02-23T04:23:02.000Z,47.3
2024-02-23T04:28:02.000Z,47.81
2024-02-23T04:33:03.000Z,50.13
2024-02-23T04:38:03.000Z,47.58
2024-02-23T04:43:02.000Z,43.1
2024-02-23T04:48:02.000Z,43.1
2024-02-23T04:53:02.000Z,47.1
2024-02-23T04:58:02.000Z,48.51
2024-02-23T05:03:02.000Z,50.74
2024-02-23T05:08:02.000Z,55.65
2024-02-23T05:13:02.000Z,62.11
2024-02-23T05:18:02.000Z,68.81
2024-02-23T05:23:02.000Z,56.37
2024-02-23T05:28:02.000Z,50.29
2024-02-23T05:33:03.000Z,42.88
2024-02-23T05:38:02.000Z,40.17
2024-02-23T05:43:02.000Z,43.59
2024-02-23T05:48:02.000Z,48.63
2024-02-23T05:53:02.000Z,45.42
2024-02-23T05:58:01.000Z,52.55
2024-02-23T06:03:02.000Z,62.13
2024-02-23T06:08:03.000Z,64.72
2024-02-23T06:13:03.000Z,70.89
2024-02-23T06:18:02.000Z,63.03
2024-02-23T06:23:02.000Z,63.03
2024-02-23T06:28:02.000Z,53.95
2024-02-23T06:33:03.000Z,70.19
2024-02-23T06:38:02.000Z,86.04
2024-02-23T06:43:03.000Z,76.85
2024-02-23T06:48:03.000Z,66.12
2024-02-23T06:53:02.000Z,58.5
2024-02-23T06:58:02.000Z,67.13
2024-02-23T07:03:03.000Z,70.33
2024-02-23T07:08:03.000Z,65.53
2024-02-23T07:13:03.000Z,63.22
2024-02-23T07:18:02.000Z,72.98
2024-02-23T07:23:02.000Z,74.77
2024-02-23T07:28:02.000Z,78.9
2024-02-23T07:33:03.000Z,102.89
2024-02-23T07:38:03.000Z,110.04
2024-02-23T07:43:03.000Z,119.65
2024-02-23T07:48:02.000Z,119.65
2024-02-23T07:53:02.000Z,109.73
2024-02-23T07:58:02.000Z,89.04
2024-02-23T08:03:02.000Z,92.27
2024-02-23T08:08:03.000Z,83.62
2024-02-23T08:13:02.000Z,65.92
2024-02-23T08:18:02.000Z,65.32
2024-02-23T08:23:02.000Z,63.58
2024-02-23T08:28:02.000Z,63.16
2024-02-23T08:33:02.000Z,59.85
2024-02-23T08:38:02.000Z,57.78
2024-02-23T08:43:03.000Z,50.84
2024-02-23T08:48:03.000Z,54.16
2024-02-23T08:53:03.000Z,54.16
2024-02-23T08:58:02.000Z,52.78
2024-02-23T09:03:03.000Z,50.76
2024-02-23T09:08:02.000Z,54.84
2024-02-23T09:13:02.000Z,67.6
2024-02-23T09:18:02.000Z,67.38
2024-02-23T09:23:02.000Z,66.87
2024-02-23T09:28:03.000Z,64.5
2024-02-23T09:33:03.000Z,62.79
2024-02-23T09:38:03.000Z,60.07
2024-02-23T09:43:03.000Z,60.15
2024-02-23T09:48:02.000Z,56.81
2024-02-23T09:53:02.000Z,54
2024-02-23T09:58:02.000Z,57.74
2024-02-23T10:03:03.000Z,57.74
2024-02-23T10:08:03.000Z,61.04
2024-02-23T10:13:03.000Z,58.24
2024-02-23T10:18:03.000Z,58
2024-02-23T10:23:02.000Z,58.3
2024-02-23T10:28:03.000Z,62.64
2024-02-23T10:33:02.000Z,70.7
2024-02-23T10:38:02.000Z,65.83
2024-02-23T10:43:02.000Z,57.83
2024-02-23T10:48:02.000Z,51.01
2024-02-23T10:53:03.000Z,36.26
2024-02-23T10:58:02.000Z,32.04
2024-02-23T11:03:03.000Z,32.04
2024-02-23T11:13:02.000Z,32.66
2024-02-23T11:18:03.000Z,32.8
2024-02-23T11:23:03.000Z,32.8
2024-02-23T11:28:02.000Z,30.81
2024-02-23T11:33:02.000Z,32.9
2024-02-23T11:38:02.000Z,34.85
2024-02-23T11:43:02.000Z,36.81
2024-02-23T11:48:03.000Z,39.29
2024-02-23T11:53:02.000Z,41.05
2024-02-23T11:58:02.000Z,43.06
2024-02-23T12:03:02.000Z,45.16
2024-02-23T12:08:03.000Z,45.64
2024-02-23T12:13:03.000Z,43.15
2024-02-23T12:18:03.000Z,48.01
2024-02-23T12:23:03.000Z,53.16
2024-02-23T12:28:02.000Z,50.36
2024-02-23T12:33:02.000Z,41.85
2024-02-23T12:38:02.000Z,41.19
2024-02-23T12:43:02.000Z,41.19
2024-02-23T12:48:02.000Z,36.35
2024-02-23T12:53:02.000Z,42.52
2024-02-23T12:58:02.000Z,48.86
2024-02-23T13:03:02.000Z,49.01
2024-02-23T13:08:03.000Z,46.23
2024-02-23T13:13:02.000Z,46.39
2024-02-23T13:18:03.000Z,45.65
2024-02-23T13:23:02.000Z,45.65
2024-02-23T13:38:03.000Z,45.7
2024-02-23T13:43:03.000Z,50.3
2024-02-23T13:48:03.000Z,51.02
2024-02-23T13:53:03.000Z,54.77
2024-02-23T13:58:02.000Z,58.65
2024-02-23T14:03:02.000Z,63.08
2024-02-23T14:08:02.000Z,58.54
2024-02-23T14:13:02.000Z,61.65
2024-02-23T14:18:02.000Z,63.92
2024-02-23T14:23:02.000Z,61.48
2024-02-23T14:28:03.000Z,60.58
2024-02-23T14:33:02.000Z,61.13
2024-02-23T14:38:02.000Z,54.63
2024-02-23T14:43:02.000Z,39.14
2024-02-23T14:48:02.000Z,39.14
2024-02-23T14:53:02.000Z,28.09
2024-02-23T14:58:02.000Z,28.62
2024-02-23T15:03:02.000Z,26.18
2024-02-23T15:08:03.000Z,24.28
2024-02-23T15:13:02.000Z,24.21
2024-02-23T15:18:03.000Z,26.17
2024-02-23T15:23:02.000Z,26.43
2024-02-23T15:28:03.000Z,28.88
2024-02-23T15:33:02.000Z,28.88
2024-02-23T15:48:02.000Z,28.46
2024-02-23T15:53:02.000Z,26.64
2024-02-23T15:58:02.000Z,25.35
2024-02-23T16:03:03.000Z,31.78
2024-02-23T16:08:03.000Z,25.34
2024-02-23T16:13:03.000Z,30.82
2024-02-23T16:18:02.000Z,35.57
2024-02-23T16:23:02.000Z,26.12
2024-02-23T16:28:02.000Z,23.2
2024-02-23T16:33:02.000Z,16.41
2024-02-23T16:38:02.000Z,24.94
2024-02-23T16:43:03.000Z,24.71
2024-02-23T16:48:02.000Z,24.71
2024-02-23T16:53:03.000Z,30.02
2024-02-23T16:58:03.000Z,24.05
2024-02-23T17:03:02.000Z,21.01
2024-02-23T17:08:02.000Z,20.85
2024-02-23T17:13:02.000Z,25.57
2024-02-23T17:18:02.000Z,20.63
2024-02-23T17:23:02.000Z,20.32
2024-02-23T17:28:03.000Z,20.32
2024-02-23T17:33:03.000Z,18.53
2024-02-23T17:38:02.000Z,16.82
2024-02-23T17:43:02.000Z,17.23
2024-02-23T17:48:03.000Z,19.39
2024-02-23T17:53:03.000Z,21.87
2024-02-23T17:58:03.000Z,21.87
2024-02-23T18:03:02.000Z,22.76
2024-02-23T18:08:03.000Z,22.46
2024-02-23T18:13:02.000Z,22.6
2024-02-23T18:18:02.000Z,24.15
2024-02-23T18:23:02.000Z,27.85
2024-02-23T18:28:02.000Z,30.65
2024-02-23T18:33:02.000Z,35.51
2024-02-23T18:38:03.000Z,21.23
2024-02-23T18:43:02.000Z,14.55
2024-02-23T18:48:02.000Z,16.71
2024-02-23T18:53:02.000Z,7.28
2024-02-23T18:58:02.000Z,7.15
2024-02-23T19:03:02.000Z,6.05
2024-02-23T19:08:02.000Z,5.71
2024-02-23T19:13:03.000Z,7.03
2024-02-23T19:18:02.000Z,7.03
2024-02-23T19:23:03.000Z,7.78
2024-02-23T19:28:03.000Z,7.42
2024-02-23T19:33:02.000Z,7.42
2024-02-23T19:38:02.000Z,8.22
2024-02-23T19:43:02.000Z,7.89
2024-02-23T19:48:03.000Z,8.48
2024-02-23T19:53:02.000Z,9.1
2024-02-23T19:58:03.000Z,8.17
2024-02-23T20:03:03.000Z,7.14
2024-02-23T20:08:02.000Z,6.46
2024-02-23T20:13:03.000Z,6.39
2024-02-23T20:18:02.000Z,8.29
2024-02-23T20:23:02.000Z,7.86
2024-02-23T20:28:03.000Z,6.36
2024-02-23T20:33:03.000Z,6.13
2024-02-23T20:38:02.000Z,7.46
2024-02-23T20:43:03.000Z,7.84
2024-02-23T20:48:02.000Z,7.84
2024-02-23T21:03:03.000Z,7.31
2024-02-23T21:08:02.000Z,5.36
2024-02-23T21:13:03.000Z,4.41
2024-02-23T21:18:03.000Z,3.38
2024-02-23T21:23:02.000Z,3.17
2024-02-23T21:28:02.000Z,3.51
2024-02-23T21:33:02.000Z,3.51
2024-02-23T21:38:02.000Z,6.41
2024-02-23T21:43:01.000Z,7.28
2024-02-23T21:48:02.000Z,6.65
2024-02-23T21:53:02.000Z,7.54
2024-02-23T21:58:03.000Z,7.81
2024-02-23T22:03:02.000Z,7.25
2024-02-23T22:08:03.000Z,6.46
2024-02-23T22:13:02.000Z,8.64
2024-02-23T22:18:03.000Z,10.03
2024-02-23T22:23:03.000Z,9.1
2024-02-23T22:28:02.000Z,9.85
2024-02-23T22:33:02.000Z,11.54
2024-02-23T22:38:02.000Z,9.6
2024-02-23T22:43:03.000Z,7.43
2024-02-23T22:48:03.000Z,7.64
2024-02-23T22:53:02.000Z,6.69
2024-02-23T22:58:02.000Z,5.9
2024-02-23T23:03:03.000Z,5.9
2024-02-23T23:08:02.000Z,5.44
2024-02-23T23:13:02.000Z,5.21
2024-02-23T23:18:03.000Z,5.59
2024-02-23T23:23:03.000Z,6.06
2024-02-23T23:28:03.000Z,6.88
2024-02-23T23:33:02.000Z,7.02
2024-02-23T23:38:02.000Z,7.03
2024-02-23T23:43:03.000Z,7.12
2024-02-23T23:48:03.000Z,7.91
2024-02-23T23:53:02.000Z,8.4
2024-02-23T23:58:03.000Z,13.42
